Time;durP1;ratioP1;P1;durP2;ratioP2;P2;SDS_P1;SDS_P2;PMS_P1;PMS_P2;Temp;Humidity;BMP_temperature;BMP_pressure;BME280_temperature;BME280_humidity;BME280_pressure;Samples;Min_cycle;Max_cycle;Signal;HPM_P1;HPM_P2
2021/03/02 00:02:26;;;;;;;121.00;41.33;;;-1.60;99.90;;;;;;4459289;28;661076;-58
2021/03/02 00:05:13;;;;;;;116.33;39.30;;;-1.70;99.90;;;;;;4444889;28;659779;-58
2021/03/02 00:08:00;;;;;;;143.03;46.07;;;-1.70;99.90;;;;;;4464505;28;662026;-58
2021/03/02 00:10:47;;;;;;;113.07;39.30;;;-1.80;99.90;;;;;;4446365;28;659758;-58
2021/03/02 00:13:34;;;;;;;113.47;38.33;;;-1.80;99.90;;;;;;4461615;28;659644;-57
2021/03/02 00:16:25;;;;;;;103.17;36.53;;;-1.80;99.90;;;;;;4447153;28;660121;-57
2021/03/02 00:19:14;;;;;;;132.37;43.63;;;-1.70;99.90;;;;;;4413332;28;660401;-58
2021/03/02 00:22:06;;;;;;;146.33;48.23;;;-1.80;99.90;;;;;;4456562;28;659675;-57
2021/03/02 00:24:55;;;;;;;154.07;47.17;;;-1.90;99.90;;;;;;4414266;28;659728;-58
2021/03/02 00:27:42;;;;;;;135.83;45.73;;;-2.00;99.90;;;;;;4464589;28;659811;-55
2021/03/02 00:30:29;;;;;;;123.97;39.80;;;-2.00;99.90;;;;;;4445844;28;659964;-58
2021/03/02 00:33:17;;;;;;;120.43;41.20;;;-2.00;99.90;;;;;;4458310;28;660489;-58
2021/03/02 00:36:05;;;;;;;117.53;39.23;;;-1.90;99.90;;;;;;4440482;28;660668;-58
2021/03/02 00:38:52;;;;;;;113.03;36.97;;;-2.00;99.90;;;;;;4458280;28;660972;-58
2021/03/02 00:41:39;;;;;;;121.65;37.95;;;-2.10;99.90;;;;;;4467755;28;659726;-58
2021/03/02 00:44:26;;;;;;;117.93;38.42;;;-2.10;99.90;;;;;;4451491;28;659647;-57
2021/03/02 00:47:13;;;;;;;110.67;38.30;;;-2.10;99.90;;;;;;4444246;28;659705;-56
2021/03/02 00:50:01;;;;;;;114.30;39.70;;;-2.00;99.90;;;;;;4463529;28;660422;-57
2021/03/02 00:52:48;;;;;;;124.17;40.87;;;-2.10;99.90;;;;;;4443853;28;660317;-58
2021/03/02 00:55:35;;;;;;;136.00;44.40;;;-2.10;99.90;;;;;;4466036;28;660563;-58
2021/03/02 00:58:22;;;;;;;122.87;39.73;;;-2.10;99.90;;;;;;4453052;28;659509;-58
2021/03/02 01:01:09;;;;;;;123.50;41.87;;;-2.00;99.90;;;;;;4462299;28;659776;-58
2021/03/02 01:03:56;;;;;;;130.00;42.47;;;-2.10;99.90;;;;;;4454743;28;660841;-57
2021/03/02 01:06:44;;;;;;;135.93;44.97;;;-2.10;99.90;;;;;;4435232;28;659468;-58
2021/03/02 01:09:31;;;;;;;151.10;46.80;;;-2.20;99.90;;;;;;4456072;28;659515;-57
2021/03/02 01:12:18;;;;;;;143.20;48.30;;;-2.20;99.90;;;;;;4444273;28;659797;-58
2021/03/02 01:15:07;;;;;;;160.13;50.23;;;-2.30;99.90;;;;;;4454121;28;661406;-57
2021/03/02 01:17:54;;;;;;;134.73;42.63;;;-2.30;99.90;;;;;;4439243;28;660452;-58
2021/03/02 01:20:41;;;;;;;119.97;41.90;;;-2.30;99.90;;;;;;4445883;28;660174;-58
2021/03/02 01:23:28;;;;;;;139.27;44.37;;;-2.30;99.90;;;;;;4437396;28;659825;-57
2021/03/02 01:26:15;;;;;;;135.70;41.73;;;-2.30;99.90;;;;;;4455543;28;661094;-58
2021/03/02 01:29:02;;;;;;;141.33;41.83;;;-2.30;99.90;;;;;;4443003;28;659762;-57
2021/03/02 01:31:49;;;;;;;136.97;43.27;;;-2.30;99.90;;;;;;4464117;28;660678;-57
2021/03/02 01:34:36;;;;;;;148.73;45.47;;;-2.30;99.90;;;;;;4456416;28;659739;-57
2021/03/02 01:37:23;;;;;;;153.57;45.27;;;-2.30;99.90;;;;;;4439229;28;659915;-58
2021/03/02 01:40:12;;;;;;;161.47;46.20;;;-2.30;99.90;;;;;;4455438;28;661188;-58
2021/03/02 01:42:59;;;;;;;160.80;46.90;;;-2.30;99.90;;;;;;4444138;28;660369;-57
2021/03/02 01:45:46;;;;;;;169.80;47.60;;;-2.30;99.90;;;;;;4451685;28;659706;-58
2021/03/02 01:48:34;;;;;;;175.83;47.63;;;-2.20;99.90;;;;;;4437013;28;660944;-57
2021/03/02 01:51:21;;;;;;;212.00;52.47;;;-2.20;99.90;;;;;;4451740;28;660905;-58
2021/03/02 01:54:08;;;;;;;228.77;53.83;;;-2.10;99.90;;;;;;4435250;28;660007;-58
2021/03/02 01:56:56;;;;;;;146.20;45.17;;;-2.10;99.90;;;;;;4447773;28;660856;-65
2021/03/02 01:59:43;;;;;;;244.63;50.60;;;-2.00;99.90;;;;;;4435402;28;660845;-65
2021/03/02 02:02:35;;;;;;;286.33;49.53;;;-2.00;99.90;;;;;;4462806;28;660457;-65
2021/03/02 02:05:22;;;;;;;425.50;52.17;;;-2.00;99.90;;;;;;4427682;28;660961;-61
2021/03/02 02:08:09;;;;;;;230.07;50.40;;;-2.00;99.90;;;;;;4466971;28;659651;-65
2021/03/02 02:10:58;;;;;;;210.45;50.33;;;-1.90;99.90;;;;;;4459846;28;659476;-65
2021/03/02 02:13:48;;;;;;;223.93;49.00;;;-1.90;99.90;;;;;;4443402;28;660722;-64
2021/03/02 02:16:35;;;;;;;233.73;50.50;;;-1.90;99.90;;;;;;4443432;28;660540;-65
2021/03/02 02:19:40;;;;;;;236.47;52.27;;;-1.80;99.90;;;;;;4446634;28;659731;-62
2021/03/02 02:22:55;;;;;;;361.60;60.53;;;-1.80;99.90;;;;;;4446422;28;660153;-62
2021/03/02 02:25:49;;;;;;;316.53;53.87;;;-1.70;99.90;;;;;;4420536;28;660054;-63
2021/03/02 02:28:37;;;;;;;499.58;62.28;;;-1.70;99.90;;;;;;4443161;28;659925;-64
2021/03/02 02:31:24;;;;;;;405.63;56.60;;;-1.60;99.90;;;;;;4442090;28;660927;-65
2021/03/02 02:34:13;;;;;;;408.57;55.40;;;-1.60;99.90;;;;;;4465943;28;661647;-65
2021/03/02 02:37:01;;;;;;;260.93;48.43;;;-1.50;99.90;;;;;;4443908;28;660245;-66
2021/03/02 02:39:48;;;;;;;302.00;48.20;;;-1.40;99.90;;;;;;4427266;28;660910;-64
2021/03/02 02:42:35;;;;;;;398.00;50.97;;;-1.30;99.90;;;;;;4470009;28;660124;-66
2021/03/02 02:45:23;;;;;;;341.80;49.30;;;-1.20;99.90;;;;;;4440461;28;660166;-63
2021/03/02 02:48:11;;;;;;;466.23;50.70;;;-1.20;99.90;;;;;;4465860;28;660839;-66
2021/03/02 02:50:59;;;;;;;372.80;47.37;;;-1.20;99.90;;;;;;4433470;28;659695;-65
2021/03/02 02:53:46;;;;;;;362.93;46.63;;;-1.20;99.90;;;;;;4461644;28;659764;-64
2021/03/02 02:56:34;;;;;;;365.17;48.10;;;-1.10;99.90;;;;;;4435740;28;659670;-66
2021/03/02 02:59:22;;;;;;;320.20;45.97;;;-1.10;99.90;;;;;;4451145;28;661077;-65
2021/03/02 03:02:15;;;;;;;339.57;47.30;;;-1.10;99.90;;;;;;4447095;28;661056;-66
2021/03/02 03:05:04;;;;;;;388.40;54.70;;;-1.10;99.90;;;;;;4435404;28;660364;-64
2021/03/02 03:07:52;;;;;;;546.47;67.70;;;-1.10;99.90;;;;;;4442172;28;661041;-62
2021/03/02 03:10:39;;;;;;;328.33;56.17;;;-1.10;99.90;;;;;;4447041;28;660422;-65
2021/03/02 03:13:27;;;;;;;467.38;59.50;;;-1.00;99.90;;;;;;4465267;28;659730;-65
2021/03/02 03:16:14;;;;;;;321.77;54.03;;;-0.90;99.90;;;;;;4435816;28;661139;-65
2021/03/02 03:19:02;;;;;;;269.93;50.80;;;-0.90;99.90;;;;;;4465146;28;659514;-64
2021/03/02 03:21:49;;;;;;;282.07;47.60;;;-0.90;99.90;;;;;;4441607;28;660998;-66
2021/03/02 03:24:36;;;;;;;235.80;47.83;;;-0.80;99.90;;;;;;4435150;28;660279;-64
2021/03/02 03:27:23;;;;;;;473.93;50.97;;;-0.80;99.90;;;;;;4444528;28;659867;-65
2021/03/02 03:30:10;;;;;;;332.43;48.23;;;-0.70;99.90;;;;;;4464759;28;661478;-65
2021/03/02 03:32:59;;;;;;;411.87;49.73;;;-0.70;99.90;;;;;;4437266;28;662197;-63
2021/03/02 03:35:46;;;;;;;425.47;50.47;;;-0.70;99.90;;;;;;4465091;28;661144;-65
2021/03/02 03:38:33;;;;;;;417.23;49.43;;;-0.70;99.90;;;;;;4420338;28;660803;-63
2021/03/02 03:41:21;;;;;;;407.57;48.63;;;-0.80;99.90;;;;;;4464393;28;659978;-65
2021/03/02 03:44:10;;;;;;;295.00;45.97;;;-0.80;99.90;;;;;;4445371;28;659421;-65
2021/03/02 03:46:57;;;;;;;296.77;43.43;;;-0.80;99.90;;;;;;4447000;28;660658;-61
2021/03/02 03:49:44;;;;;;;279.23;41.10;;;-0.80;99.90;;;;;;4467666;28;659843;-65
2021/03/02 03:52:32;;;;;;;254.55;43.05;;;-0.70;99.90;;;;;;4453563;28;660084;-65
2021/03/02 03:55:20;;;;;;;235.95;42.47;;;-0.80;99.90;;;;;;4438584;28;661084;-65
2021/03/02 03:58:08;;;;;;;215.93;40.80;;;-0.80;99.90;;;;;;4445142;28;660455;-62
2021/03/02 04:00:55;;;;;;;303.53;43.60;;;-0.70;99.90;;;;;;4464549;28;660641;-65
2021/03/02 04:03:42;;;;;;;248.37;41.27;;;-0.70;99.90;;;;;;4454660;27;660144;-63
2021/03/02 04:06:29;;;;;;;192.23;38.50;;;-0.60;99.90;;;;;;4480226;27;659677;-65
2021/03/02 04:09:17;;;;;;;357.13;45.77;;;-0.70;99.90;;;;;;4482199;27;660238;-64
2021/03/02 04:12:05;;;;;;;468.00;47.03;;;-0.70;99.90;;;;;;4449235;27;660869;-65
2021/03/02 04:14:52;;;;;;;305.38;44.38;;;-0.70;99.90;;;;;;4463409;27;659710;-63
2021/03/02 04:17:39;;;;;;;369.60;43.97;;;-0.70;99.90;;;;;;4481228;27;660637;-65
2021/03/02 04:20:26;;;;;;;291.50;42.03;;;-0.70;99.90;;;;;;4482715;27;660321;-65
2021/03/02 04:23:13;;;;;;;422.53;46.93;;;-0.70;99.90;;;;;;4457352;27;660463;-65
2021/03/02 04:26:01;;;;;;;395.73;45.22;;;-0.80;99.90;;;;;;4474072;27;660976;-65
2021/03/02 04:28:48;;;;;;;272.17;43.27;;;-0.80;99.90;;;;;;4457996;27;660500;-65
2021/03/02 04:31:35;;;;;;;320.40;44.77;;;-0.70;99.90;;;;;;4483051;27;660538;-65
2021/03/02 04:34:22;;;;;;;251.40;43.17;;;-0.70;99.90;;;;;;4463171;27;660169;-61
2021/03/02 04:37:09;;;;;;;212.70;41.67;;;-0.70;99.90;;;;;;4478286;27;659878;-66
2021/03/02 04:39:56;;;;;;;214.43;38.40;;;-0.60;99.90;;;;;;4475407;27;660122;-65
2021/03/02 04:42:44;;;;;;;269.63;43.53;;;-0.60;99.90;;;;;;4463361;27;660168;-65
2021/03/02 04:45:31;;;;;;;237.90;42.57;;;-0.60;99.90;;;;;;4482112;27;659498;-65
2021/03/02 04:48:18;;;;;;;365.30;46.20;;;-0.60;99.90;;;;;;4462536;27;659740;-65
2021/03/02 04:51:05;;;;;;;413.00;45.50;;;-0.60;99.90;;;;;;4476225;27;660481;-65
2021/03/02 04:53:52;;;;;;;333.93;46.77;;;-0.70;99.90;;;;;;4462704;27;659707;-63
2021/03/02 04:56:39;;;;;;;223.57;45.05;;;-0.70;99.90;;;;;;4485970;27;659644;-64
2021/03/02 04:59:27;;;;;;;224.07;43.67;;;-0.70;99.90;;;;;;4481727;27;659764;-65
2021/03/02 05:02:14;;;;;;;397.30;50.03;;;-0.70;99.90;;;;;;4458046;27;660942;-66
2021/03/02 05:05:01;;;;;;;296.17;47.92;;;-0.70;99.90;;;;;;4480936;27;660359;-64
2021/03/02 05:07:48;;;;;;;261.07;45.87;;;-0.70;99.90;;;;;;4462836;27;660820;-65
2021/03/02 05:10:35;;;;;;;267.75;47.95;;;-0.70;99.90;;;;;;4480739;27;661196;-65
2021/03/02 05:13:22;;;;;;;225.00;45.92;;;-0.70;99.90;;;;;;4462319;27;660573;-62
2021/03/02 05:16:11;;;;;;;257.55;44.13;;;-0.60;99.90;;;;;;4485902;27;660275;-66
2021/03/02 05:18:58;;;;;;;230.67;45.17;;;-0.60;99.90;;;;;;4463080;27;659677;-65
2021/03/02 05:21:44;;;;;;;202.30;43.97;;;-0.50;99.90;;;;;;4481113;27;660823;-65
2021/03/02 05:24:31;;;;;;;206.00;42.20;;;-0.50;99.90;;;;;;4458786;27;659831;-66
2021/03/02 05:27:19;;;;;;;223.67;43.20;;;-0.50;99.90;;;;;;4459944;27;659891;-65
2021/03/02 05:30:06;;;;;;;167.77;42.13;;;-0.60;99.90;;;;;;4478034;27;660108;-65
2021/03/02 05:32:54;;;;;;;169.80;42.47;;;-0.60;99.90;;;;;;4450971;27;661416;-64
2021/03/02 05:35:41;;;;;;;186.43;41.20;;;-0.70;99.90;;;;;;4480990;27;659533;-66
2021/03/02 05:38:28;;;;;;;181.53;43.40;;;-0.70;99.90;;;;;;4459870;28;661238;-65
2021/03/02 05:41:15;;;;;;;159.37;41.80;;;-0.80;99.90;;;;;;4481066;28;660803;-66
2021/03/02 05:44:03;;;;;;;164.95;40.80;;;-0.80;99.90;;;;;;4461903;27;659851;-64
2021/03/02 05:46:49;;;;;;;190.37;40.63;;;-0.80;99.90;;;;;;4485243;27;660412;-64
2021/03/02 05:49:37;;;;;;;169.00;40.47;;;-0.80;99.90;;;;;;4474655;27;659649;-65
2021/03/02 05:52:24;;;;;;;171.50;42.47;;;-0.80;99.90;;;;;;4461585;27;661007;-66
2021/03/02 05:55:12;;;;;;;199.97;56.87;;;-0.90;99.90;;;;;;4484465;27;660382;-66
2021/03/02 05:57:59;;;;;;;165.20;44.00;;;-0.90;99.90;;;;;;4459500;27;660169;-66
2021/03/02 06:00:46;;;;;;;167.10;42.47;;;-0.90;99.90;;;;;;4484566;27;659770;-65
2021/03/02 06:03:35;;;;;;;144.97;38.87;;;-0.90;99.90;;;;;;4455850;27;660816;-66
2021/03/02 06:06:23;;;;;;;151.77;40.20;;;-0.90;99.90;;;;;;4449868;28;659873;-62
2021/03/02 06:09:10;;;;;;;153.87;40.53;;;-0.80;99.90;;;;;;4460196;28;660339;-64
2021/03/02 06:12:04;;;;;;;157.15;39.35;;;-0.60;99.90;;;;;;4452616;28;659715;-62
2021/03/02 06:15:02;;;;;;;160.17;40.27;;;-0.60;99.90;;;;;;4438567;28;660002;-65
2021/03/02 06:18:09;;;;;;;183.03;42.33;;;-0.50;99.90;;;;;;4439949;28;659689;-66
2021/03/02 06:21:11;;;;;;;176.00;40.20;;;-0.50;99.90;;;;;;4434119;28;659896;-66
2021/03/02 06:23:59;;;;;;;185.67;41.20;;;-0.40;99.90;;;;;;4426195;28;659941;-65
2021/03/02 06:26:46;;;;;;;198.30;42.97;;;-0.30;99.90;;;;;;4463766;28;659247;-65
2021/03/02 06:29:33;;;;;;;182.07;40.40;;;-0.30;99.90;;;;;;4443403;28;660449;-64
2021/03/02 06:32:25;;;;;;;189.77;39.20;;;-0.20;99.90;;;;;;4459362;28;661663;-66
2021/03/02 06:35:13;;;;;;;180.40;39.93;;;-0.20;99.90;;;;;;4423914;28;659754;-63
2021/03/02 06:38:00;;;;;;;199.03;42.67;;;-0.10;99.90;;;;;;4469573;28;660972;-65
2021/03/02 06:40:48;;;;;;;166.53;39.23;;;-0.10;99.90;;;;;;4444652;28;659665;-63
2021/03/02 06:43:36;;;;;;;148.93;36.07;;;0.00;99.90;;;;;;4456971;28;659650;-65
2021/03/02 06:46:32;;;;;;;80.30;18.00;;;0.20;99.90;;;;;;4427632;28;659271;-66
2021/03/02 06:49:19;;;;;;;138.77;36.97;;;0.60;99.90;;;;;;4440978;28;657897;-68
2021/03/02 06:52:17;;;;;;;136.57;33.85;;;0.60;99.90;;;;;;4466607;28;659180;-68
2021/03/02 06:55:05;;;;;;;107.70;25.10;;;0.50;99.90;;;;;;4436013;28;658928;-68
2021/03/02 06:58:13;;;;;;;135.70;35.70;;;0.70;99.90;;;;;;4454911;28;659245;-62
2021/03/02 07:01:01;;;;;;;129.13;34.27;;;0.70;99.90;;;;;;4441834;28;659151;-65
2021/03/02 07:03:48;;;;;;;120.43;33.33;;;0.70;99.90;;;;;;4454504;27;658575;-66
2021/03/02 07:06:37;;;;;;;114.40;33.40;;;0.70;99.90;;;;;;4489086;27;659682;-64
2021/03/02 07:09:24;;;;;;;111.30;31.17;;;0.80;99.90;;;;;;4464757;27;658643;-66
2021/03/02 07:12:12;;;;;;;112.07;31.63;;;0.90;99.90;;;;;;4484123;27;659118;-66
2021/03/02 07:15:01;;;;;;;102.63;31.17;;;1.10;99.90;;;;;;4463705;27;659898;-66
2021/03/02 07:17:51;;;;;;;103.77;31.00;;;1.00;99.90;;;;;;4440632;27;659684;-66
2021/03/02 07:20:39;;;;;;;106.93;30.27;;;1.10;99.90;;;;;;4445230;28;658475;-65
2021/03/02 07:23:26;;;;;;;76.97;22.03;;;1.30;99.90;;;;;;4462043;28;659368;-66
2021/03/02 07:26:13;;;;;;;53.10;15.83;;;1.60;99.90;;;;;;4435302;28;657285;-66
2021/03/02 07:29:01;;;;;;;92.77;28.03;;;1.60;99.90;;;;;;4471410;28;658650;-66
2021/03/02 07:31:49;;;;;;;93.07;29.53;;;1.60;99.90;;;;;;4415301;28;658035;-67
2021/03/02 07:34:37;;;;;;;102.40;31.23;;;1.60;99.90;;;;;;4467651;28;658927;-68
2021/03/02 07:37:24;;;;;;;99.33;29.53;;;1.70;99.90;;;;;;4447445;28;659103;-67
2021/03/02 07:40:12;;;;;;;98.23;30.80;;;1.80;99.90;;;;;;4467340;28;657255;-68
2021/03/02 07:43:02;;;;;;;74.60;21.52;;;1.70;99.90;;;;;;4439886;28;658538;-66
2021/03/02 07:45:49;;;;;;;35.20;13.70;;;1.90;99.90;;;;;;4425002;28;657938;-67
2021/03/02 07:48:37;;;;;;;89.80;29.83;;;2.20;99.90;;;;;;4456020;28;658334;-68
2021/03/02 07:51:24;;;;;;;83.77;27.10;;;2.30;99.90;;;;;;4433764;28;659204;-68
2021/03/02 07:54:16;;;;;;;92.30;28.90;;;2.50;99.90;;;;;;4458106;28;658874;-67
2021/03/02 07:57:25;;;;;;;90.50;29.13;;;2.50;99.90;;;;;;4406162;28;658470;-68
2021/03/02 08:00:23;;;;;;;84.87;29.90;;;2.80;99.90;;;;;;4462762;28;657640;-64
2021/03/02 08:03:28;;;;;;;80.63;27.63;;;2.80;99.90;;;;;;4407434;28;657585;-69
2021/03/02 08:06:45;;;;;;;84.30;28.07;;;3.00;99.90;;;;;;4420926;28;658033;-66
2021/03/02 08:09:32;;;;;;;80.07;28.23;;;3.10;99.90;;;;;;4355138;28;657468;-68
2021/03/02 08:12:30;;;;;;;78.20;26.37;;;3.40;99.90;;;;;;4345954;28;657969;-68
2021/03/02 08:15:38;;;;;;;34.93;9.37;;;3.60;99.90;;;;;;4354404;28;658585;-67
2021/03/02 08:18:29;;;;;;;75.25;27.33;;;3.80;99.90;;;;;;4347795;28;657342;-68
2021/03/02 08:21:17;;;;;;;87.73;28.57;;;4.00;99.90;;;;;;4345015;28;657424;-68
2021/03/02 08:24:06;;;;;;;81.77;27.27;;;4.30;99.90;;;;;;4343135;28;658963;-68
2021/03/02 08:26:53;;;;;;;80.77;28.60;;;4.50;99.90;;;;;;4342450;28;658088;-67
2021/03/02 08:29:48;;;;;;;80.13;27.70;;;4.60;99.90;;;;;;4377473;28;658816;-68
2021/03/02 08:32:35;;;;;;;74.40;28.20;;;4.80;99.90;;;;;;4347742;28;658073;-67
2021/03/02 08:35:24;;;;;;;58.55;20.58;;;4.90;99.90;;;;;;4358775;28;657698;-64
2021/03/02 08:38:12;;;;;;;38.83;14.53;;;5.10;99.90;;;;;;4369329;28;657883;-68
2021/03/02 08:41:00;;;;;;;38.70;11.53;;;5.10;99.90;;;;;;4354366;28;658554;-68
2021/03/02 08:43:47;;;;;;;71.05;26.50;;;5.30;99.90;;;;;;4362883;28;657453;-66
2021/03/02 08:46:36;;;;;;;71.27;25.93;;;5.30;99.90;;;;;;4362762;28;657931;-65
2021/03/02 08:49:23;;;;;;;64.97;24.07;;;5.50;99.90;;;;;;4419734;28;657866;-67
2021/03/02 08:52:10;;;;;;;50.03;18.17;;;5.80;99.90;;;;;;4462953;28;656846;-68
2021/03/02 08:54:57;;;;;;;51.00;17.37;;;5.80;99.90;;;;;;4424273;28;657625;-64
2021/03/02 08:57:45;;;;;;;71.40;25.35;;;5.80;99.90;;;;;;4466148;28;657561;-67
2021/03/02 09:00:32;;;;;;;62.83;22.63;;;5.80;99.90;;;;;;4438242;28;657660;-65
2021/03/02 09:03:23;;;;;;;69.37;24.40;;;5.90;99.90;;;;;;4462973;28;658347;-68
2021/03/02 09:06:17;;;;;;;65.57;24.77;;;6.10;99.90;;;;;;4433921;28;658209;-66
2021/03/02 09:09:05;;;;;;;48.13;16.40;;;6.20;99.90;;;;;;4402028;28;658537;-66
2021/03/02 09:11:53;;;;;;;69.17;24.33;;;6.50;99.90;;;;;;4430763;28;657510;-63
2021/03/02 09:14:41;;;;;;;72.17;25.33;;;6.50;99.90;;;;;;4447940;28;659533;-67
2021/03/02 09:17:28;;;;;;;72.43;26.07;;;6.60;99.90;;;;;;4436715;28;657830;-65
2021/03/02 09:20:16;;;;;;;65.13;26.33;;;6.80;99.90;;;;;;4468178;28;658344;-66
2021/03/02 09:23:03;;;;;;;75.33;27.23;;;7.00;99.90;;;;;;4418672;28;657601;-66
2021/03/02 09:25:51;;;;;;;72.53;24.60;;;7.30;99.90;;;;;;4434855;28;658534;-65
2021/03/02 09:28:38;;;;;;;70.50;26.03;;;7.40;99.90;;;;;;4427862;28;658235;-65
2021/03/02 09:31:26;;;;;;;60.77;23.33;;;7.40;99.90;;;;;;4462663;28;659109;-66
2021/03/02 09:34:14;;;;;;;71.22;27.65;;;7.60;99.90;;;;;;4430806;28;657495;-65
2021/03/02 09:37:03;;;;;;;66.23;23.63;;;7.90;99.90;;;;;;4456065;28;657961;-65
2021/03/02 09:39:55;;;;;;;61.60;23.53;;;8.30;99.90;;;;;;4432322;28;658505;-67
2021/03/02 09:42:43;;;;;;;61.23;21.93;;;8.70;99.90;;;;;;4401300;28;659068;-65
2021/03/02 09:45:30;;;;;;;57.37;22.70;;;8.70;99.90;;;;;;4462250;28;658961;-66
2021/03/02 09:48:18;;;;;;;62.20;23.00;;;9.10;99.90;;;;;;4423575;28;658940;-62
2021/03/02 09:51:05;;;;;;;60.57;23.10;;;9.20;99.90;;;;;;4452290;28;658800;-66
2021/03/02 09:53:52;;;;;;;69.80;24.00;;;9.20;99.90;;;;;;4432499;28;657754;-66
2021/03/02 09:56:39;;;;;;;61.90;23.47;;;9.40;99.90;;;;;;4458292;28;657716;-66
2021/03/02 09:59:26;;;;;;;55.13;21.27;;;9.80;99.90;;;;;;4453048;28;657446;-66
2021/03/02 10:02:13;;;;;;;43.83;15.80;;;10.10;98.40;;;;;;4438171;28;659449;-65
2021/03/02 10:05:02;;;;;;;43.93;18.57;;;10.50;96.90;;;;;;4457890;28;659744;-65
2021/03/02 10:07:49;;;;;;;46.53;15.43;;;10.30;95.00;;;;;;4434713;28;660597;-63
2021/03/02 10:10:37;;;;;;;36.10;14.13;;;10.50;92.60;;;;;;4458640;28;659443;-65
2021/03/02 10:13:32;;;;;;;37.60;15.03;;;10.40;91.30;;;;;;4439556;28;659429;-66
2021/03/02 10:16:22;;;;;;;32.57;13.47;;;10.30;90.80;;;;;;4381368;28;659133;-65
2021/03/02 10:19:17;;;;;;;44.90;15.63;;;10.30;90.80;;;;;;4413410;28;660229;-66
2021/03/02 10:22:12;;;;;;;44.40;17.03;;;10.20;87.90;;;;;;4421920;28;659048;-66
2021/03/02 10:24:59;;;;;;;44.13;16.23;;;10.40;87.40;;;;;;4398822;28;661173;-66
2021/03/02 10:27:55;;;;;;;46.47;17.77;;;10.80;84.80;;;;;;4432883;28;659047;-66
2021/03/02 10:30:42;;;;;;;40.67;17.23;;;10.90;84.60;;;;;;4413087;28;659339;-63
2021/03/02 10:33:29;;;;;;;44.70;17.20;;;11.20;82.70;;;;;;4466497;28;659658;-66
2021/03/02 10:36:27;;;;;;;53.30;19.40;;;11.20;81.90;;;;;;4451046;28;658631;-67
2021/03/02 10:39:15;;;;;;;51.13;18.60;;;10.90;82.40;;;;;;4420232;28;659633;-65
2021/03/02 10:42:03;;;;;;;51.83;19.60;;;11.00;83.30;;;;;;4447268;28;658591;-64
2021/03/02 10:44:50;;;;;;;51.53;20.40;;;10.80;82.90;;;;;;4462652;28;659007;-65
2021/03/02 10:47:37;;;;;;;43.53;19.33;;;11.10;82.50;;;;;;4455443;28;659192;-63
2021/03/02 10:50:24;;;;;;;53.70;20.60;;;11.80;80.10;;;;;;4452927;28;659469;-67
2021/03/02 10:53:11;;;;;;;50.13;20.00;;;11.80;80.10;;;;;;4465880;28;659206;-67
2021/03/02 10:55:59;;;;;;;50.87;20.33;;;12.10;77.30;;;;;;4430508;28;658623;-67
2021/03/02 10:58:47;;;;;;;46.90;19.80;;;12.20;78.30;;;;;;4449660;28;658881;-66
2021/03/02 11:01:34;;;;;;;40.30;16.80;;;12.50;76.20;;;;;;4442735;28;659432;-66
2021/03/02 11:04:21;;;;;;;32.90;10.67;;;12.70;74.60;;;;;;4454169;28;659247;-65
2021/03/02 11:07:08;;;;;;;52.17;20.33;;;12.40;76.40;;;;;;4448066;27;658364;-66
2021/03/02 11:09:55;;;;;;;54.53;20.50;;;12.20;77.50;;;;;;4461393;28;659189;-66
2021/03/02 11:12:43;;;;;;;50.00;18.77;;;12.40;78.90;;;;;;4459953;28;658398;-63
2021/03/02 11:15:30;;;;;;;41.77;15.90;;;12.70;75.00;;;;;;4466037;28;659303;-67
2021/03/02 11:18:17;;;;;;;50.33;21.20;;;12.70;72.80;;;;;;4447969;28;658614;-63
2021/03/02 11:21:05;;;;;;;58.47;20.93;;;12.70;75.60;;;;;;4472170;28;660123;-66
2021/03/02 11:23:52;;;;;;;63.60;24.03;;;12.70;74.60;;;;;;4452759;28;658904;-66
2021/03/02 11:26:39;;;;;;;61.47;21.30;;;12.90;73.30;;;;;;4445634;28;658750;-66
2021/03/02 11:29:27;;;;;;;47.60;20.63;;;12.90;73.00;;;;;;4466569;28;659319;-66
2021/03/02 11:32:14;;;;;;;38.20;12.03;;;13.40;73.30;;;;;;4448014;28;659286;-66
2021/03/02 11:35:01;;;;;;;26.43;10.17;;;13.60;69.30;;;;;;4464784;28;658673;-66
2021/03/02 11:37:48;;;;;;;44.73;17.03;;;13.50;69.20;;;;;;4446691;28;658852;-67
2021/03/02 11:40:35;;;;;;;52.83;20.87;;;13.40;70.60;;;;;;4469184;28;659586;-66
2021/03/02 11:43:22;;;;;;;50.00;19.93;;;14.00;67.90;;;;;;4456957;28;658546;-61
2021/03/02 11:46:10;;;;;;;47.70;18.50;;;13.90;67.10;;;;;;4465363;28;658403;-65
2021/03/02 11:48:57;;;;;;;46.57;20.27;;;14.00;65.30;;;;;;4446413;28;658968;-62
2021/03/02 11:51:44;;;;;;;54.20;21.73;;;14.10;65.40;;;;;;4464798;28;658602;-66
2021/03/02 11:54:31;;;;;;;53.60;19.60;;;14.50;66.80;;;;;;4465735;28;659298;-67
2021/03/02 11:57:18;;;;;;;54.03;21.70;;;14.80;63.30;;;;;;4446297;28;658870;-67
2021/03/02 12:00:08;;;;;;;53.67;20.77;;;15.20;62.70;;;;;;4458901;28;659201;-67
2021/03/02 12:02:56;;;;;;;55.20;23.20;;;15.80;61.20;;;;;;4442695;28;660186;-66
2021/03/02 12:05:43;;;;;;;55.37;21.70;;;14.70;61.70;;;;;;4444387;28;658589;-67
2021/03/02 12:08:30;;;;;;;55.47;23.17;;;14.70;64.00;;;;;;4468011;28;659727;-67
2021/03/02 12:11:18;;;;;;;51.87;22.03;;;14.80;63.50;;;;;;4440233;28;658490;-63
2021/03/02 12:14:05;;;;;;;47.43;18.97;;;15.10;61.40;;;;;;4468913;28;659365;-64
2021/03/02 12:16:52;;;;;;;58.27;23.10;;;15.00;62.70;;;;;;4446467;28;658554;-62
2021/03/02 12:19:40;;;;;;;60.83;21.50;;;14.80;62.70;;;;;;4461123;28;659401;-67
2021/03/02 12:22:27;;;;;;;46.67;19.02;;;15.40;62.60;;;;;;4428367;28;659640;-61
2021/03/02 12:25:14;;;;;;;52.80;19.77;;;15.20;60.00;;;;;;4465953;28;659668;-66
2021/03/02 12:28:01;;;;;;;42.63;16.40;;;15.20;59.90;;;;;;4463630;28;658717;-65
2021/03/02 12:30:49;;;;;;;48.77;18.13;;;15.50;59.10;;;;;;4442399;28;659477;-67
2021/03/02 12:33:36;;;;;;;40.87;15.30;;;16.20;57.40;;;;;;4464621;28;660087;-67
2021/03/02 12:36:23;;;;;;;42.47;15.50;;;17.30;54.90;;;;;;4445038;28;658852;-66
2021/03/02 12:39:11;;;;;;;28.60;10.97;;;18.00;52.30;;;;;;4464189;28;659730;-65
2021/03/02 12:41:58;;;;;;;32.37;12.63;;;17.30;50.70;;;;;;4429675;28;660066;-65
2021/03/02 12:44:44;;;;;;;33.53;11.70;;;16.80;53.80;;;;;;4452344;28;660525;-66
2021/03/02 12:47:31;;;;;;;27.57;11.20;;;17.70;50.30;;;;;;4449034;28;658869;-66
2021/03/02 12:50:18;;;;;;;21.80;8.47;;;18.70;47.60;;;;;;4437483;28;659748;-66
2021/03/02 12:53:07;;;;;;;27.07;11.13;;;18.10;46.70;;;;;;4463834;28;658358;-67
2021/03/02 12:55:54;;;;;;;28.20;11.67;;;18.50;46.30;;;;;;4441033;28;660532;-68
2021/03/02 12:58:41;;;;;;;32.03;12.37;;;19.20;45.00;;;;;;4454119;28;658948;-67
2021/03/02 13:01:30;;;;;;;30.00;13.13;;;20.10;45.50;;;;;;4441516;28;658707;-66
2021/03/02 13:04:17;;;;;;;33.60;13.60;;;19.90;43.10;;;;;;4461665;28;658689;-66
2021/03/02 13:07:04;;;;;;;30.00;12.13;;;19.30;44.80;;;;;;4430778;28;660268;-67
2021/03/02 13:09:52;;;;;;;18.90;7.53;;;20.60;43.20;;;;;;4451735;28;659065;-66
2021/03/02 13:12:39;;;;;;;29.97;9.73;;;20.20;41.50;;;;;;4429901;28;659249;-66
2021/03/02 13:15:26;;;;;;;29.53;11.50;;;18.00;45.90;;;;;;4461825;28;657468;-65
2021/03/02 13:18:13;;;;;;;28.53;11.30;;;17.70;46.60;;;;;;4437515;28;658980;-67
2021/03/02 13:21:00;;;;;;;28.87;11.97;;;19.70;45.50;;;;;;4456582;28;658901;-68
2021/03/02 13:23:48;;;;;;;28.80;11.00;;;19.40;43.20;;;;;;4410770;28;659652;-65
2021/03/02 13:26:36;;;;;;;23.47;9.87;;;20.90;42.00;;;;;;4465237;28;659838;-68
2021/03/02 13:29:23;;;;;;;22.13;7.53;;;21.40;39.80;;;;;;4444555;28;658840;-66
2021/03/02 13:32:13;;;;;;;29.17;11.77;;;20.40;40.20;;;;;;4444983;28;657589;-68
2021/03/02 13:35:00;;;;;;;29.17;11.93;;;20.30;40.80;;;;;;4435671;28;660592;-68
2021/03/02 13:37:47;;;;;;;41.73;15.57;;;21.00;40.40;;;;;;4436469;28;658844;-66
2021/03/02 13:40:35;;;;;;;40.10;16.10;;;20.60;41.10;;;;;;4465084;28;660683;-66
2021/03/02 13:43:23;;;;;;;35.47;15.50;;;20.60;40.90;;;;;;4465180;28;658208;-67
2021/03/02 13:46:11;;;;;;;33.83;15.03;;;19.80;41.10;;;;;;4441665;28;658967;-67
2021/03/02 13:48:58;;;;;;;37.07;15.70;;;19.70;41.80;;;;;;4444775;28;658639;-65
2021/03/02 13:51:45;;;;;;;28.23;9.60;;;20.00;41.70;;;;;;4460755;28;659601;-67
2021/03/02 13:54:32;;;;;;;38.83;16.03;;;20.20;41.80;;;;;;4446138;28;658506;-61
2021/03/02 13:57:20;;;;;;;45.20;17.30;;;20.40;41.20;;;;;;4460215;28;658470;-66
2021/03/02 14:00:13;;;;;;;41.07;17.67;;;21.10;40.00;;;;;;4444802;28;659201;-63
2021/03/02 14:03:00;;;;;;;43.17;17.95;;;21.10;40.00;;;;;;4431526;28;659838;-65